createdAt,value
2018-11-04T00:01:09.507Z,17.00
2018-11-04T00:03:38.578Z,17.17
2018-11-04T00:06:07.597Z,17.37
2018-11-04T00:08:36.704Z,16.67
2018-11-04T00:11:06.564Z,16.63
2018-11-04T00:13:35.657Z,17.77
2018-11-04T00:16:05.058Z,16.97
2018-11-04T00:18:34.096Z,16.90
2018-11-04T00:21:03.228Z,17.03
2018-11-04T00:23:32.411Z,15.87
2018-11-04T00:26:01.484Z,16.37
2018-11-04T00:28:30.513Z,17.67
2018-11-04T00:30:59.641Z,16.50
2018-11-04T00:33:28.682Z,16.93
2018-11-04T00:35:57.850Z,18.00
2018-11-04T00:38:26.937Z,17.47
2018-11-04T00:40:55.985Z,16.70
2018-11-04T00:43:25.271Z,17.00
2018-11-04T00:45:54.523Z,16.43
2018-11-04T00:48:23.610Z,16.80
2018-11-04T00:50:52.858Z,17.17
2018-11-04T00:53:22.146Z,16.50
2018-11-04T00:55:54.735Z,16.30
2018-11-04T00:58:30.184Z,16.53
2018-11-04T01:00:59.265Z,16.50
2018-11-04T01:03:28.569Z,16.23
2018-11-04T01:05:57.620Z,16.93
2018-11-04T01:08:26.710Z,15.47
2018-11-04T01:10:55.781Z,16.97
2018-11-04T01:13:24.909Z,17.33
2018-11-04T01:15:53.974Z,16.73
2018-11-04T01:18:23.032Z,16.10
2018-11-04T01:20:52.122Z,16.97
2018-11-04T01:23:21.225Z,16.37
2018-11-04T01:25:50.317Z,16.83
2018-11-04T01:28:19.367Z,16.50
2018-11-04T01:30:48.424Z,16.33
2018-11-04T01:33:17.427Z,17.03
2018-11-04T01:35:46.571Z,16.87
2018-11-04T01:38:15.615Z,17.33
2018-11-04T01:40:44.684Z,16.30
2018-11-04T01:43:13.723Z,17.33
2018-11-04T01:45:42.758Z,17.73
2018-11-04T01:48:12.199Z,17.27
2018-11-04T01:50:41.320Z,17.60
2018-11-04T01:53:10.419Z,17.33
2018-11-04T01:55:40.337Z,18.27
2018-11-04T01:58:09.431Z,17.30
2018-11-04T02:00:38.663Z,17.73
2018-11-04T02:03:07.710Z,17.57
2018-11-04T02:05:36.732Z,16.63
2018-11-04T02:08:06.304Z,17.43
2018-11-04T02:10:35.329Z,17.53
2018-11-04T02:13:04.422Z,18.37
2018-11-04T02:15:33.482Z,18.50
2018-11-04T02:18:02.490Z,17.90
2018-11-04T02:20:31.493Z,17.80
2018-11-04T02:23:00.524Z,17.97
2018-11-04T02:25:29.561Z,18.67
2018-11-04T02:27:58.562Z,18.60
2018-11-04T02:30:27.604Z,18.53
2018-11-04T02:32:56.668Z,17.83
2018-11-04T02:35:25.688Z,18.80
2018-11-04T02:37:54.717Z,17.27
2018-11-04T02:40:23.727Z,18.00
2018-11-04T02:42:52.800Z,17.90
2018-11-04T02:45:21.884Z,18.50
2018-11-04T02:47:50.953Z,18.10
2018-11-04T02:50:20.119Z,18.47
2018-11-04T02:52:49.314Z,18.70
2018-11-04T02:55:18.415Z,17.97
2018-11-04T02:57:47.496Z,18.50
2018-11-04T03:00:16.609Z,18.13
2018-11-04T03:02:45.655Z,17.97
2018-11-04T03:05:15.058Z,18.20
2018-11-04T03:07:44.208Z,18.63
2018-11-04T03:10:14.331Z,18.10
2018-11-04T03:12:43.355Z,19.07
2018-11-04T03:15:12.403Z,17.10
2018-11-04T03:17:42.859Z,17.77
2018-11-04T03:20:11.978Z,16.87
2018-11-04T03:22:41.075Z,17.27
2018-11-04T03:25:10.426Z,18.07
2018-11-04T03:27:39.497Z,17.50
2018-11-04T03:30:09.638Z,17.57
2018-11-04T03:32:38.660Z,17.63
2018-11-04T03:35:08.403Z,17.80
2018-11-04T03:37:37.640Z,17.97
2018-11-04T03:40:09.821Z,17.90
2018-11-04T03:42:38.856Z,17.50
2018-11-04T03:45:09.454Z,19.00
2018-11-04T03:47:38.768Z,18.80
2018-11-04T03:50:09.696Z,18.17
2018-11-04T03:52:38.736Z,18.17
2018-11-04T03:55:08.369Z,19.33
2018-11-04T03:57:37.406Z,18.83
2018-11-04T04:00:09.952Z,17.73
2018-11-04T04:02:39.044Z,18.67
2018-11-04T04:05:09.241Z,18.87
2018-11-04T04:07:38.278Z,20.13
2018-11-04T04:10:08.427Z,18.70
2018-11-04T04:12:37.874Z,19.30
2018-11-04T04:15:08.521Z,18.93
2018-11-04T04:17:37.528Z,20.37
2018-11-04T04:20:06.820Z,19.30
2018-11-04T04:22:35.925Z,19.80
2018-11-04T04:25:05.760Z,19.73
2018-11-04T04:27:34.894Z,19.83
2018-11-04T04:30:04.987Z,20.93
2018-11-04T04:32:34.208Z,21.60
2018-11-04T04:35:03.275Z,20.63
2018-11-04T04:37:32.361Z,19.33
2018-11-04T04:40:01.471Z,19.90
2018-11-04T04:42:30.535Z,20.83
2018-11-04T04:44:59.516Z,20.80
2018-11-04T04:47:28.568Z,19.40
2018-11-04T04:49:57.565Z,19.83
2018-11-04T04:52:26.597Z,20.27
2018-11-04T04:54:55.629Z,20.17
2018-11-04T04:57:24.649Z,20.03
2018-11-04T04:59:53.699Z,20.13
2018-11-04T05:02:22.759Z,19.73
2018-11-04T05:04:51.786Z,20.17
2018-11-04T05:07:20.897Z,20.20
2018-11-04T05:09:50.095Z,20.03
2018-11-04T05:12:19.126Z,20.00
2018-11-04T05:14:48.164Z,20.27
2018-11-04T05:17:17.198Z,20.20
2018-11-04T05:19:46.234Z,20.40
2018-11-04T05:22:15.379Z,20.10
2018-11-04T05:24:44.453Z,19.97
2018-11-04T05:27:13.486Z,20.93
2018-11-04T05:29:42.531Z,20.10
2018-11-04T05:32:12.589Z,19.77
2018-11-04T05:34:41.686Z,19.70
2018-11-04T05:37:10.696Z,20.57
2018-11-04T05:39:39.693Z,19.87
2018-11-04T05:42:08.761Z,20.63
2018-11-04T05:44:37.801Z,20.33
2018-11-04T05:47:07.504Z,22.07
2018-11-04T05:49:36.733Z,20.17
2018-11-04T05:52:05.764Z,19.40
2018-11-04T05:54:34.775Z,20.17
2018-11-04T05:57:04.177Z,20.37
2018-11-04T05:59:33.210Z,20.30
2018-11-04T06:02:02.272Z,19.50
2018-11-04T06:04:31.323Z,21.37
2018-11-04T06:07:00.641Z,19.47
2018-11-04T06:09:29.711Z,19.07
2018-11-04T06:11:58.779Z,21.43
2018-11-04T06:14:27.788Z,20.20
2018-11-04T06:16:56.818Z,19.87
2018-11-04T06:19:25.948Z,21.07
2018-11-04T06:21:55.096Z,20.97
2018-11-04T06:24:24.273Z,20.73
2018-11-04T06:26:53.350Z,20.57
2018-11-04T06:29:22.481Z,24.63
2018-11-04T06:31:51.559Z,24.53
2018-11-04T06:34:20.981Z,22.60
2018-11-04T06:36:50.199Z,22.33
2018-11-04T06:39:19.523Z,24.03
2018-11-04T06:41:48.568Z,24.07
2018-11-04T06:44:18.164Z,24.67
2018-11-04T06:46:47.269Z,22.63
2018-11-04T06:49:16.427Z,21.90
2018-11-04T06:51:45.437Z,21.00
2018-11-04T06:54:14.472Z,21.57
2018-11-04T06:56:43.528Z,22.30
2018-11-04T06:59:12.557Z,22.80
2018-11-04T07:01:41.639Z,23.50
2018-11-04T07:05:52.315Z,23.37
2018-11-04T07:08:21.405Z,21.83
2018-11-04T07:10:50.483Z,22.90
2018-11-04T07:13:19.562Z,23.40
2018-11-04T07:15:48.576Z,22.33
2018-11-04T07:18:17.695Z,22.97
2018-11-04T07:20:46.768Z,23.47
2018-11-04T07:23:15.845Z,23.90
2018-11-04T07:25:44.964Z,23.03
2018-11-04T07:28:14.220Z,23.47
2018-11-04T07:30:43.275Z,23.90
2018-11-04T07:33:12.305Z,25.43
2018-11-04T07:35:41.363Z,24.13
2018-11-04T07:38:10.405Z,24.17
2018-11-04T07:40:39.456Z,24.50
2018-11-04T07:43:08.502Z,25.90
2018-11-04T07:45:37.745Z,24.43
2018-11-04T07:48:06.853Z,24.03
2018-11-04T07:50:36.363Z,22.37
2018-11-04T07:53:06.263Z,22.07
2018-11-04T07:55:35.359Z,23.40
2018-11-04T07:58:04.515Z,24.50
2018-11-04T08:00:33.552Z,23.13
2018-11-04T08:03:02.634Z,23.67
2018-11-04T08:05:31.905Z,23.00
2018-11-04T08:08:00.945Z,22.60
2018-11-04T08:10:29.960Z,23.77
2018-11-04T08:12:59.002Z,22.67
2018-11-04T08:15:28.076Z,21.83
2018-11-04T08:17:57.195Z,22.70
2018-11-04T08:20:26.256Z,21.73
2018-11-04T08:22:55.306Z,21.10
2018-11-04T08:25:24.352Z,21.67
2018-11-04T08:27:53.584Z,21.93
2018-11-04T08:30:22.817Z,21.37
2018-11-04T08:32:51.824Z,20.67
2018-11-04T08:35:20.946Z,21.30
2018-11-04T08:37:49.987Z,21.37
2018-11-04T08:40:19.130Z,21.93
2018-11-04T08:42:48.395Z,19.57
2018-11-04T08:45:17.858Z,19.97
2018-11-04T08:47:47.874Z,21.07
2018-11-04T08:50:17.089Z,20.73
2018-11-04T08:52:46.425Z,21.67
2018-11-04T08:55:15.925Z,21.23
2018-11-04T08:57:45.062Z,22.00
2018-11-04T09:00:15.532Z,20.60
2018-11-04T09:02:45.329Z,20.03
2018-11-04T09:05:14.411Z,18.77
2018-11-04T09:07:43.534Z,18.63
2018-11-04T09:10:14.353Z,20.43
2018-11-04T09:12:44.030Z,20.07
2018-11-04T09:15:13.178Z,21.10
2018-11-04T09:17:42.202Z,20.10
2018-11-04T09:20:14.416Z,19.83
2018-11-04T09:22:43.920Z,19.53
2018-11-04T09:25:13.509Z,21.23
2018-11-04T09:27:42.531Z,20.93
2018-11-04T09:30:16.330Z,20.27
2018-11-04T09:32:45.951Z,20.93
2018-11-04T09:35:14.998Z,20.13
2018-11-04T09:37:44.175Z,19.97
2018-11-04T09:40:13.828Z,20.57
2018-11-04T09:42:43.106Z,22.20
2018-11-04T09:45:12.217Z,18.80
2018-11-04T09:47:41.275Z,19.97
2018-11-04T09:50:11.612Z,19.33
2018-11-04T09:52:40.780Z,19.73
2018-11-04T09:55:11.028Z,20.77
2018-11-04T09:57:40.123Z,20.83
2018-11-04T10:00:10.853Z,21.17
2018-11-04T10:02:40.048Z,23.73
2018-11-04T10:05:10.126Z,25.33
2018-11-04T10:07:40.189Z,23.60
2018-11-04T10:10:11.532Z,25.80
2018-11-04T10:12:41.651Z,27.43
2018-11-04T10:15:11.154Z,27.60
2018-11-04T10:17:40.926Z,27.40
2018-11-04T10:20:11.624Z,28.40
2018-11-04T10:22:41.393Z,27.27
2018-11-04T10:25:11.761Z,27.67
2018-11-04T10:27:41.968Z,26.20
2018-11-04T10:30:14.114Z,25.93
2018-11-04T10:32:43.937Z,26.53
2018-11-04T10:35:13.354Z,26.90
2018-11-04T10:37:42.878Z,27.57
2018-11-04T10:40:12.669Z,26.60
2018-11-04T10:42:42.159Z,27.30
2018-11-04T10:45:12.165Z,27.37
2018-11-04T10:47:41.570Z,26.93
2018-11-04T10:50:12.137Z,25.63
2018-11-04T10:52:41.465Z,27.33
2018-11-04T10:55:11.281Z,28.53
2018-11-04T10:57:40.542Z,29.20
2018-11-04T11:00:16.067Z,28.57
2018-11-04T11:02:45.678Z,30.07
2018-11-04T11:05:15.172Z,29.23
2018-11-04T11:07:44.332Z,31.97
2018-11-04T11:10:13.442Z,29.40
2018-11-04T11:12:42.532Z,29.37
2018-11-04T11:15:12.070Z,30.30
2018-11-04T11:17:41.271Z,30.23
2018-11-04T11:20:11.600Z,30.73
2018-11-04T11:22:41.246Z,30.67
2018-11-04T11:25:11.427Z,30.27
2018-11-04T11:27:40.584Z,28.90
2018-11-04T11:30:09.758Z,32.27
2018-11-04T11:32:38.979Z,30.90
2018-11-04T11:35:08.548Z,31.00
2018-11-04T11:37:37.992Z,31.37
2018-11-04T11:40:08.129Z,30.53
2018-11-04T11:42:37.185Z,31.87
2018-11-04T11:45:07.226Z,31.50
2018-11-04T11:47:36.672Z,32.33
2018-11-04T11:50:06.433Z,31.37
2018-11-04T11:52:35.567Z,31.97
2018-11-04T11:55:05.579Z,32.13
2018-11-04T11:57:35.088Z,33.77
2018-11-04T12:00:05.595Z,31.87
2018-11-04T12:02:34.713Z,33.03
2018-11-04T12:05:04.248Z,31.10
2018-11-04T12:07:33.348Z,31.90
2018-11-04T12:10:02.524Z,31.90
2018-11-04T12:12:32.168Z,32.07
2018-11-04T12:15:01.591Z,33.53
2018-11-04T12:17:30.705Z,33.43
2018-11-04T12:20:00.208Z,33.20
2018-11-04T12:22:29.686Z,31.30
2018-11-04T12:24:58.788Z,31.40
2018-11-04T12:27:27.903Z,32.30
2018-11-04T12:29:57.422Z,32.03
2018-11-04T12:32:26.564Z,32.80
2018-11-04T12:34:55.637Z,31.17
2018-11-04T12:37:24.743Z,32.10
2018-11-04T12:39:53.827Z,32.53
2018-11-04T12:42:23.097Z,31.57
2018-11-04T12:44:52.202Z,31.47
2018-11-04T12:47:21.350Z,33.00
2018-11-04T12:49:50.804Z,30.23
2018-11-04T12:52:20.013Z,30.23
2018-11-04T12:54:49.231Z,30.43
2018-11-04T12:57:18.254Z,29.77
2018-11-04T12:59:47.482Z,29.63
2018-11-04T13:02:16.565Z,30.73
2018-11-04T13:04:45.591Z,30.30
2018-11-04T13:07:14.635Z,30.30
2018-11-04T13:09:43.691Z,31.00
2018-11-04T13:12:12.864Z,29.97
2018-11-04T13:14:41.915Z,28.27
2018-11-04T13:17:10.994Z,29.43
2018-11-04T13:19:40.028Z,28.63
2018-11-04T13:22:09.064Z,29.63
2018-11-04T13:24:38.166Z,29.67
2018-11-04T13:27:07.414Z,28.93
2018-11-04T13:29:36.592Z,28.47
2018-11-04T13:32:06.003Z,29.70
2018-11-04T13:34:35.138Z,28.37
2018-11-04T13:37:04.160Z,29.50
2018-11-04T13:39:33.233Z,28.43
2018-11-04T13:42:02.261Z,28.17
2018-11-04T13:44:31.482Z,28.13
2018-11-04T13:47:00.846Z,28.17
2018-11-04T13:49:30.044Z,31.00
2018-11-04T13:51:59.246Z,32.90
2018-11-04T13:54:28.311Z,33.10
2018-11-04T13:56:57.551Z,30.40
2018-11-04T13:59:26.575Z,33.73
2018-11-04T14:01:55.703Z,29.83
2018-11-04T14:04:24.847Z,29.43
2018-11-04T14:06:54.235Z,28.87
2018-11-04T14:09:23.273Z,28.40
2018-11-04T14:11:52.329Z,31.73
2018-11-04T14:14:21.393Z,30.00
2018-11-04T14:16:50.425Z,33.17
2018-11-04T14:19:19.541Z,31.67
2018-11-04T14:21:48.646Z,33.23
2018-11-04T14:24:17.833Z,33.07
2018-11-04T14:26:46.961Z,31.03
2018-11-04T14:29:16.102Z,27.13
2018-11-04T14:31:45.400Z,28.20
2018-11-04T14:34:15.457Z,25.30
2018-11-04T14:36:44.540Z,26.27
2018-11-04T14:39:13.628Z,25.33
2018-11-04T14:41:42.676Z,25.33
2018-11-04T14:44:11.708Z,25.27
2018-11-04T14:46:40.788Z,23.97
2018-11-04T14:49:09.797Z,24.30
2018-11-04T14:51:39.061Z,23.60
2018-11-04T14:54:08.269Z,25.13
2018-11-04T14:56:37.557Z,31.93
2018-11-04T14:59:07.306Z,29.50
2018-11-04T15:01:36.442Z,27.20
2018-11-04T15:04:05.832Z,23.37
2018-11-04T15:06:36.662Z,25.00
2018-11-04T15:09:06.981Z,33.97
2018-11-04T15:11:35.984Z,33.20
2018-11-04T15:14:05.232Z,35.87
2018-11-04T15:16:34.292Z,34.50
2018-11-04T15:19:03.461Z,30.37
2018-11-04T15:21:32.664Z,24.10
2018-11-04T15:24:01.964Z,26.93
2018-11-04T15:26:31.302Z,24.67
2018-11-04T15:29:00.702Z,26.03
2018-11-04T15:31:29.840Z,24.30
2018-11-04T15:33:58.914Z,26.50
2018-11-04T15:36:28.181Z,25.27
2018-11-04T15:38:57.578Z,33.67
2018-11-04T15:41:26.886Z,22.90
2018-11-04T15:43:56.020Z,26.10
2018-11-04T15:46:25.611Z,24.30
2018-11-04T15:48:54.785Z,22.90
2018-11-04T15:51:24.055Z,23.33
2018-11-04T15:53:53.285Z,22.50
2018-11-04T15:56:22.350Z,23.53
2018-11-04T15:58:51.382Z,24.80
2018-11-04T16:01:20.408Z,23.13
2018-11-04T16:03:49.465Z,22.93
2018-11-04T16:06:18.530Z,22.80
2018-11-04T16:08:47.649Z,22.03
2018-11-04T16:11:16.704Z,22.53
2018-11-04T16:13:45.714Z,23.90
2018-11-04T16:16:14.881Z,23.70
2018-11-04T16:18:44.017Z,22.37
2018-11-04T16:21:13.358Z,22.33
2018-11-04T16:23:42.404Z,22.90
2018-11-04T16:26:11.474Z,20.70
2018-11-04T16:28:40.541Z,20.20
2018-11-04T16:31:09.599Z,21.67
2018-11-04T16:33:42.689Z,21.57
2018-11-04T16:36:11.780Z,21.40
2018-11-04T16:38:40.870Z,20.53
2018-11-04T16:41:10.005Z,20.67
2018-11-04T16:43:39.123Z,20.27
2018-11-04T16:46:08.513Z,20.30
2018-11-04T16:48:37.581Z,20.70
2018-11-04T16:51:07.093Z,20.37
2018-11-04T16:53:36.180Z,20.87
2018-11-04T16:56:05.740Z,20.73
2018-11-04T16:58:34.987Z,19.87
2018-11-04T17:01:04.451Z,19.73
2018-11-04T17:03:33.484Z,20.30
2018-11-04T17:06:02.508Z,19.97
2018-11-04T17:08:33.584Z,19.47
2018-11-04T17:11:02.603Z,19.10
2018-11-04T17:13:31.687Z,19.67
2018-11-04T17:16:00.719Z,17.60
2018-11-04T17:18:29.791Z,18.23
2018-11-04T17:20:58.833Z,18.13
2018-11-04T17:23:28.184Z,16.97
2018-11-04T17:25:57.479Z,33.00
2018-11-04T17:28:26.883Z,23.03
2018-11-04T17:30:55.915Z,30.03
2018-11-04T17:33:24.967Z,19.57
2018-11-04T17:35:54.024Z,22.23
2018-11-04T17:38:23.304Z,22.67
2018-11-04T17:40:52.339Z,23.00
2018-11-04T17:43:21.397Z,20.70
2018-11-04T17:45:51.728Z,21.27
2018-11-04T17:48:20.802Z,17.70
2018-11-04T17:50:50.101Z,23.57
2018-11-04T17:53:20.586Z,18.07
2018-11-04T17:55:49.670Z,17.37
2018-11-04T17:58:18.930Z,17.93
2018-11-04T18:00:48.162Z,18.67
2018-11-04T18:03:17.854Z,19.67
2018-11-04T18:05:46.919Z,17.30
2018-11-04T18:08:16.033Z,15.80
2018-11-04T18:10:45.281Z,16.30
2018-11-04T18:13:14.309Z,16.50
2018-11-04T18:15:43.432Z,16.53
2018-11-04T18:18:12.511Z,16.27
2018-11-04T18:20:41.561Z,16.57
2018-11-04T18:23:10.811Z,17.00
2018-11-04T18:25:40.083Z,16.97
2018-11-04T18:28:09.122Z,16.83
2018-11-04T18:30:38.263Z,17.07
2018-11-04T18:33:07.313Z,16.27
2018-11-04T18:35:37.034Z,17.20
2018-11-04T18:38:06.156Z,16.23
2018-11-04T18:40:35.413Z,16.43
2018-11-04T18:43:05.194Z,17.07
2018-11-04T18:45:34.248Z,16.60
2018-11-04T18:48:03.409Z,16.30
2018-11-04T18:50:32.724Z,16.80
2018-11-04T18:53:01.970Z,16.70
2018-11-04T18:55:31.031Z,16.03
2018-11-04T18:58:00.140Z,15.57
2018-11-04T19:00:29.627Z,15.60
2018-11-04T19:02:58.775Z,16.17
2018-11-04T19:05:28.043Z,15.53
2018-11-04T19:07:57.310Z,15.73
2018-11-04T19:10:26.399Z,16.10
2018-11-04T19:12:55.416Z,15.43
2018-11-04T19:15:24.714Z,16.43
2018-11-04T19:17:53.826Z,16.50
2018-11-04T19:20:22.861Z,18.37
2018-11-04T19:22:51.917Z,18.03
2018-11-04T19:25:21.034Z,16.90
2018-11-04T19:27:50.093Z,16.27
2018-11-04T19:30:19.224Z,15.67
2018-11-04T19:32:48.305Z,15.97
2018-11-04T19:35:17.961Z,16.10
2018-11-04T19:37:46.988Z,16.50
2018-11-04T19:40:16.631Z,16.83
2018-11-04T19:42:45.735Z,15.17
2018-11-04T19:45:14.935Z,15.83
2018-11-04T19:47:43.944Z,16.47
2018-11-04T19:50:13.576Z,15.93
2018-11-04T19:52:42.893Z,15.80
2018-11-04T19:55:13.010Z,16.07
2018-11-04T19:57:42.085Z,15.17
2018-11-04T20:00:12.298Z,14.80
2018-11-04T20:02:41.382Z,16.23
2018-11-04T20:05:11.283Z,15.60
2018-11-04T20:07:40.891Z,15.47
2018-11-04T20:10:13.177Z,14.10
2018-11-04T20:12:47.744Z,15.30
2018-11-04T20:15:16.781Z,14.57
2018-11-04T20:17:46.825Z,14.23
2018-11-04T20:20:18.751Z,13.97
2018-11-04T20:22:47.924Z,15.40
2018-11-04T20:25:22.300Z,14.80
2018-11-04T20:27:51.707Z,14.20
2018-11-04T20:30:20.837Z,14.50
2018-11-04T20:32:55.366Z,13.90
2018-11-04T20:35:24.674Z,14.00
2018-11-04T20:37:53.819Z,13.67
2018-11-04T20:40:28.105Z,14.23
2018-11-04T20:42:57.172Z,15.20
2018-11-04T20:45:26.260Z,14.67
2018-11-04T20:48:00.739Z,14.57
2018-11-04T20:50:34.917Z,13.57
2018-11-04T20:53:04.538Z,13.90
2018-11-04T20:55:39.074Z,14.00
2018-11-04T20:58:08.228Z,14.00
2018-11-04T21:00:37.414Z,14.47
2018-11-04T21:03:06.484Z,14.10
2018-11-04T21:05:35.565Z,14.37
2018-11-04T21:08:04.965Z,14.20
2018-11-04T21:10:34.016Z,13.20
2018-11-04T21:13:03.095Z,14.43
2018-11-04T21:15:32.199Z,14.50
2018-11-04T21:18:01.251Z,14.47
2018-11-04T21:20:30.325Z,15.13
2018-11-04T21:22:59.370Z,14.37
2018-11-04T21:25:28.654Z,14.80
2018-11-04T21:27:57.701Z,15.27
2018-11-04T21:30:26.902Z,14.17
2018-11-04T21:32:55.989Z,15.70
2018-11-04T21:35:25.072Z,15.50
2018-11-04T21:37:54.215Z,15.10
2018-11-04T21:40:23.460Z,14.97
2018-11-04T21:42:52.932Z,15.10
2018-11-04T21:45:22.024Z,15.67
2018-11-04T21:47:51.085Z,14.87
2018-11-04T21:50:20.182Z,15.70
2018-11-04T21:52:49.313Z,16.60
2018-11-04T21:55:18.441Z,15.87
2018-11-04T21:57:47.601Z,16.20
2018-11-04T22:00:17.275Z,16.20
2018-11-04T22:02:46.448Z,15.90
2018-11-04T22:05:15.541Z,16.73
2018-11-04T22:07:44.640Z,15.60
2018-11-04T22:10:14.986Z,15.90
2018-11-04T22:12:44.260Z,15.87
2018-11-04T22:15:13.324Z,15.67
2018-11-04T22:17:42.706Z,16.20
2018-11-04T22:20:12.897Z,16.00
2018-11-04T22:22:41.932Z,16.27
2018-11-04T22:25:11.449Z,18.93
2018-11-04T22:27:40.474Z,15.17
2018-11-04T22:30:10.906Z,16.30
2018-11-04T22:32:40.002Z,15.27
2018-11-04T22:35:10.535Z,16.43
2018-11-04T22:37:39.655Z,16.83
2018-11-04T22:40:10.164Z,15.13
2018-11-04T22:42:39.676Z,15.27
2018-11-04T22:45:09.883Z,15.37
2018-11-04T22:47:39.394Z,15.53
2018-11-04T22:50:10.331Z,15.20
2018-11-04T22:52:40.368Z,15.83
2018-11-04T22:55:09.653Z,16.23
2018-11-04T22:57:38.811Z,15.47
2018-11-04T23:00:14.090Z,15.67
2018-11-04T23:02:43.119Z,15.73
2018-11-04T23:05:17.546Z,15.70
2018-11-04T23:07:46.662Z,15.80
2018-11-04T23:10:16.005Z,15.00
2018-11-04T23:12:45.067Z,15.73
2018-11-04T23:15:14.281Z,16.10
2018-11-04T23:17:43.607Z,16.13
2018-11-04T23:20:12.706Z,16.80
2018-11-04T23:22:41.775Z,19.33
2018-11-04T23:25:12.326Z,16.97
2018-11-04T23:27:42.218Z,17.27
2018-11-04T23:30:13.620Z,16.30
2018-11-04T23:32:43.117Z,15.40
2018-11-04T23:35:12.701Z,15.77
2018-11-04T23:37:42.800Z,16.07
2018-11-04T23:40:12.249Z,15.97
2018-11-04T23:42:41.323Z,15.97
2018-11-04T23:45:11.593Z,15.97
2018-11-04T23:47:40.689Z,15.43
2018-11-04T23:50:12.043Z,15.33
2018-11-04T23:52:41.439Z,17.17
2018-11-04T23:55:11.355Z,16.07
2018-11-04T23:57:40.720Z,16.57
